Terminal Aerodrome Forecast
Issued by NWS Wilmington, OH

Current Version | Previous Version | Graphics & Text | Print | Product List | Glossary On
Versions: 1 2 3 4 5 6 7 8 9 10 11 12 13 14 15 16 17 18 19 20 21 22 23 24
000
FTUS41 KILN 201136
TAFCMH
TAF
KCMH 201136Z 2012/2112 16004KT P6SM SCT150 BKN250
     FM201500 24010KT P6SM SCT050 BKN200
     FM202100 24010KT P6SM VCSH BKN050
     FM210400 24008KT P6SM BKN080=

USA.gov is the U.S. government's official web portal to all federal, state and local government web resources and services.